sensor_id;sensor_type;location;lat;lon;timestamp;P1;durP1;ratioP1;P2;durP2;ratioP2
59273;SDS011;45044;41.572;24.730;2023-02-28T00:00:31;50.72;;;25.10;;
59273;SDS011;45044;41.572;24.730;2023-02-28T00:02:59;38.00;;;23.40;;
59273;SDS011;45044;41.572;24.730;2023-02-28T00:05:26;40.67;;;22.88;;
59273;SDS011;45044;41.572;24.730;2023-02-28T00:07:54;35.92;;;21.88;;
59273;SDS011;45044;41.572;24.730;2023-02-28T00:10:23;37.88;;;24.00;;
59273;SDS011;45044;41.572;24.730;2023-02-28T00:12:53;49.33;;;25.88;;
59273;SDS011;45044;41.572;24.730;2023-02-28T00:15:23;46.28;;;26.65;;
59273;SDS011;45044;41.572;24.730;2023-02-28T00:17:50;48.75;;;26.80;;
59273;SDS011;45044;41.572;24.730;2023-02-28T00:20:18;45.13;;;26.70;;
59273;SDS011;45044;41.572;24.730;2023-02-28T00:22:46;52.92;;;28.75;;
59273;SDS011;45044;41.572;24.730;2023-02-28T00:25:19;55.53;;;29.42;;
59273;SDS011;45044;41.572;24.730;2023-02-28T00:27:48;60.55;;;32.53;;
59273;SDS011;45044;41.572;24.730;2023-02-28T00:30:16;64.00;;;34.17;;
59273;SDS011;45044;41.572;24.730;2023-02-28T00:32:45;53.33;;;28.65;;
59273;SDS011;45044;41.572;24.730;2023-02-28T00:35:12;41.42;;;25.35;;
59273;SDS011;45044;41.572;24.730;2023-02-28T00:37:39;49.55;;;28.17;;
59273;SDS011;45044;41.572;24.730;2023-02-28T00:40:06;51.28;;;26.17;;
59273;SDS011;45044;41.572;24.730;2023-02-28T00:42:34;48.67;;;25.75;;
59273;SDS011;45044;41.572;24.730;2023-02-28T00:45:02;61.75;;;30.92;;
59273;SDS011;45044;41.572;24.730;2023-02-28T00:47:31;60.67;;;31.15;;
59273;SDS011;45044;41.572;24.730;2023-02-28T00:49:58;48.17;;;29.85;;
59273;SDS011;45044;41.572;24.730;2023-02-28T00:52:25;50.90;;;29.30;;
59273;SDS011;45044;41.572;24.730;2023-02-28T00:54:51;46.13;;;26.38;;
59273;SDS011;45044;41.572;24.730;2023-02-28T00:57:18;51.42;;;28.92;;
59273;SDS011;45044;41.572;24.730;2023-02-28T00:59:45;49.55;;;27.30;;
59273;SDS011;45044;41.572;24.730;2023-02-28T01:02:12;47.35;;;26.92;;
59273;SDS011;45044;41.572;24.730;2023-02-28T01:04:39;45.95;;;29.05;;
59273;SDS011;45044;41.572;24.730;2023-02-28T01:07:05;62.58;;;36.25;;
59273;SDS011;45044;41.572;24.730;2023-02-28T01:09:32;62.88;;;34.53;;
59273;SDS011;45044;41.572;24.730;2023-02-28T01:11:59;48.38;;;30.25;;
59273;SDS011;45044;41.572;24.730;2023-02-28T01:14:26;50.05;;;30.67;;
59273;SDS011;45044;41.572;24.730;2023-02-28T01:16:52;42.65;;;25.33;;
59273;SDS011;45044;41.572;24.730;2023-02-28T01:19:19;44.17;;;24.02;;
59273;SDS011;45044;41.572;24.730;2023-02-28T01:21:46;48.80;;;22.58;;
59273;SDS011;45044;41.572;24.730;2023-02-28T01:24:13;42.38;;;25.17;;
59273;SDS011;45044;41.572;24.730;2023-02-28T01:26:40;40.97;;;24.40;;
59273;SDS011;45044;41.572;24.730;2023-02-28T01:29:07;39.30;;;25.05;;
59273;SDS011;45044;41.572;24.730;2023-02-28T01:31:33;43.35;;;24.60;;
59273;SDS011;45044;41.572;24.730;2023-02-28T01:34:01;40.25;;;25.25;;
59273;SDS011;45044;41.572;24.730;2023-02-28T01:36:28;40.33;;;23.65;;
59273;SDS011;45044;41.572;24.730;2023-02-28T01:38:56;40.30;;;22.20;;
59273;SDS011;45044;41.572;24.730;2023-02-28T01:41:26;42.10;;;22.85;;
59273;SDS011;45044;41.572;24.730;2023-02-28T01:44:03;39.22;;;21.70;;
59273;SDS011;45044;41.572;24.730;2023-02-28T01:46:33;36.33;;;21.05;;
59273;SDS011;45044;41.572;24.730;2023-02-28T01:54:21;44.67;;;24.58;;
59273;SDS011;45044;41.572;24.730;2023-02-28T01:57:03;36.85;;;22.30;;
59273;SDS011;45044;41.572;24.730;2023-02-28T01:59:37;43.28;;;23.65;;
59273;SDS011;45044;41.572;24.730;2023-02-28T02:02:19;46.50;;;24.02;;
59273;SDS011;45044;41.572;24.730;2023-02-28T02:07:23;39.00;;;24.08;;
59273;SDS011;45044;41.572;24.730;2023-02-28T02:10:27;35.83;;;22.00;;
59273;SDS011;45044;41.572;24.730;2023-02-28T02:15:51;43.50;;;22.85;;
59273;SDS011;45044;41.572;24.730;2023-02-28T02:18:30;44.05;;;26.30;;
59273;SDS011;45044;41.572;24.730;2023-02-28T02:34:26;44.88;;;24.65;;
59273;SDS011;45044;41.572;24.730;2023-02-28T02:37:24;44.45;;;25.42;;
59273;SDS011;45044;41.572;24.730;2023-02-28T02:42:55;48.17;;;25.10;;
59273;SDS011;45044;41.572;24.730;2023-02-28T02:45:29;44.90;;;24.60;;
59273;SDS011;45044;41.572;24.730;2023-02-28T02:48:04;42.50;;;23.50;;
59273;SDS011;45044;41.572;24.730;2023-02-28T02:50:39;42.25;;;23.40;;
59273;SDS011;45044;41.572;24.730;2023-02-28T02:53:36;47.75;;;27.77;;
59273;SDS011;45044;41.572;24.730;2023-02-28T02:56:07;51.75;;;31.98;;
59273;SDS011;45044;41.572;24.730;2023-02-28T02:58:36;47.22;;;28.98;;
59273;SDS011;45044;41.572;24.730;2023-02-28T03:01:14;46.67;;;27.37;;
59273;SDS011;45044;41.572;24.730;2023-02-28T03:03:55;41.42;;;25.00;;
59273;SDS011;45044;41.572;24.730;2023-02-28T03:06:25;43.88;;;24.63;;
59273;SDS011;45044;41.572;24.730;2023-02-28T03:08:52;43.47;;;24.92;;
59273;SDS011;45044;41.572;24.730;2023-02-28T03:11:19;45.80;;;26.60;;
59273;SDS011;45044;41.572;24.730;2023-02-28T03:19:38;43.40;;;20.15;;
59273;SDS011;45044;41.572;24.730;2023-02-28T03:25:09;39.42;;;23.02;;
59273;SDS011;45044;41.572;24.730;2023-02-28T03:27:55;45.35;;;22.60;;
59273;SDS011;45044;41.572;24.730;2023-02-28T03:33:24;40.58;;;23.27;;
59273;SDS011;45044;41.572;24.730;2023-02-28T03:35:57;44.20;;;23.42;;
59273;SDS011;45044;41.572;24.730;2023-02-28T03:41:13;39.50;;;23.42;;
59273;SDS011;45044;41.572;24.730;2023-02-28T03:43:51;46.80;;;24.98;;
59273;SDS011;45044;41.572;24.730;2023-02-28T03:46:52;50.75;;;27.00;;
59273;SDS011;45044;41.572;24.730;2023-02-28T03:49:27;52.38;;;28.23;;
59273;SDS011;45044;41.572;24.730;2023-02-28T03:52:04;50.17;;;27.38;;
59273;SDS011;45044;41.572;24.730;2023-02-28T03:54:34;51.70;;;27.50;;
59273;SDS011;45044;41.572;24.730;2023-02-28T03:59:47;44.70;;;26.40;;
59273;SDS011;45044;41.572;24.730;2023-02-28T04:02:22;52.13;;;28.88;;
59273;SDS011;45044;41.572;24.730;2023-02-28T04:04:49;43.65;;;25.08;;
59273;SDS011;45044;41.572;24.730;2023-02-28T04:07:16;44.53;;;27.40;;
59273;SDS011;45044;41.572;24.730;2023-02-28T04:09:44;46.38;;;27.05;;
59273;SDS011;45044;41.572;24.730;2023-02-28T04:12:10;50.15;;;25.73;;
59273;SDS011;45044;41.572;24.730;2023-02-28T04:14:37;124.43;;;77.13;;
59273;SDS011;45044;41.572;24.730;2023-02-28T04:17:04;183.75;;;108.43;;
59273;SDS011;45044;41.572;24.730;2023-02-28T04:19:31;119.85;;;72.70;;
59273;SDS011;45044;41.572;24.730;2023-02-28T04:21:58;90.22;;;55.13;;
59273;SDS011;45044;41.572;24.730;2023-02-28T04:24:26;120.75;;;71.95;;
59273;SDS011;45044;41.572;24.730;2023-02-28T04:26:54;110.15;;;73.90;;
59273;SDS011;45044;41.572;24.730;2023-02-28T04:29:23;102.32;;;65.90;;
59273;SDS011;45044;41.572;24.730;2023-02-28T04:31:52;103.38;;;64.25;;
59273;SDS011;45044;41.572;24.730;2023-02-28T04:34:20;85.00;;;52.13;;
59273;SDS011;45044;41.572;24.730;2023-02-28T04:36:47;62.75;;;39.50;;
59273;SDS011;45044;41.572;24.730;2023-02-28T04:39:37;66.10;;;39.53;;
59273;SDS011;45044;41.572;24.730;2023-02-28T04:42:04;68.45;;;42.40;;
59273;SDS011;45044;41.572;24.730;2023-02-28T04:44:31;100.18;;;60.97;;
59273;SDS011;45044;41.572;24.730;2023-02-28T04:46:58;87.13;;;55.47;;
59273;SDS011;45044;41.572;24.730;2023-02-28T04:49:25;82.10;;;54.30;;
59273;SDS011;45044;41.572;24.730;2023-02-28T04:51:52;85.72;;;57.08;;
59273;SDS011;45044;41.572;24.730;2023-02-28T04:54:19;84.82;;;59.17;;
59273;SDS011;45044;41.572;24.730;2023-02-28T04:56:46;136.13;;;88.10;;
59273;SDS011;45044;41.572;24.730;2023-02-28T04:59:16;170.00;;;114.40;;
59273;SDS011;45044;41.572;24.730;2023-02-28T05:01:46;126.70;;;83.80;;
59273;SDS011;45044;41.572;24.730;2023-02-28T05:04:13;120.45;;;77.97;;
59273;SDS011;45044;41.572;24.730;2023-02-28T05:06:41;124.85;;;78.63;;
59273;SDS011;45044;41.572;24.730;2023-02-28T05:09:08;122.50;;;78.82;;
59273;SDS011;45044;41.572;24.730;2023-02-28T05:11:38;130.65;;;86.22;;
59273;SDS011;45044;41.572;24.730;2023-02-28T05:14:09;126.25;;;88.07;;
59273;SDS011;45044;41.572;24.730;2023-02-28T05:16:37;113.95;;;74.85;;
59273;SDS011;45044;41.572;24.730;2023-02-28T05:19:04;92.53;;;65.03;;
59273;SDS011;45044;41.572;24.730;2023-02-28T05:24:06;94.78;;;67.60;;
59273;SDS011;45044;41.572;24.730;2023-02-28T05:26:37;106.05;;;80.68;;
59273;SDS011;45044;41.572;24.730;2023-02-28T05:29:09;98.30;;;70.43;;
59273;SDS011;45044;41.572;24.730;2023-02-28T05:31:36;106.43;;;66.85;;
59273;SDS011;45044;41.572;24.730;2023-02-28T05:34:04;81.47;;;54.92;;
59273;SDS011;45044;41.572;24.730;2023-02-28T05:36:31;87.10;;;57.72;;
59273;SDS011;45044;41.572;24.730;2023-02-28T05:38:59;86.50;;;57.80;;
59273;SDS011;45044;41.572;24.730;2023-02-28T05:41:25;82.20;;;56.55;;
59273;SDS011;45044;41.572;24.730;2023-02-28T05:43:53;83.82;;;53.75;;
59273;SDS011;45044;41.572;24.730;2023-02-28T05:46:20;89.97;;;55.55;;
59273;SDS011;45044;41.572;24.730;2023-02-28T05:48:47;111.88;;;75.78;;
59273;SDS011;45044;41.572;24.730;2023-02-28T05:51:14;106.25;;;68.03;;
59273;SDS011;45044;41.572;24.730;2023-02-28T05:53:42;108.80;;;72.78;;
59273;SDS011;45044;41.572;24.730;2023-02-28T05:56:09;98.15;;;67.53;;
59273;SDS011;45044;41.572;24.730;2023-02-28T05:58:36;96.95;;;66.78;;
59273;SDS011;45044;41.572;24.730;2023-02-28T06:03:53;121.97;;;78.68;;
59273;SDS011;45044;41.572;24.730;2023-02-28T06:06:20;111.72;;;74.35;;
59273;SDS011;45044;41.572;24.730;2023-02-28T06:08:46;110.97;;;73.82;;
59273;SDS011;45044;41.572;24.730;2023-02-28T06:11:13;103.93;;;74.97;;
59273;SDS011;45044;41.572;24.730;2023-02-28T06:13:40;122.32;;;82.45;;
59273;SDS011;45044;41.572;24.730;2023-02-28T06:16:08;123.15;;;86.20;;
59273;SDS011;45044;41.572;24.730;2023-02-28T06:18:36;129.77;;;90.22;;
59273;SDS011;45044;41.572;24.730;2023-02-28T06:21:04;120.90;;;85.93;;
59273;SDS011;45044;41.572;24.730;2023-02-28T06:23:31;126.97;;;90.15;;
59273;SDS011;45044;41.572;24.730;2023-02-28T06:25:57;128.95;;;88.85;;
59273;SDS011;45044;41.572;24.730;2023-02-28T06:28:25;112.40;;;80.53;;
59273;SDS011;45044;41.572;24.730;2023-02-28T06:30:52;111.65;;;76.97;;
59273;SDS011;45044;41.572;24.730;2023-02-28T06:33:19;116.25;;;82.38;;
59273;SDS011;45044;41.572;24.730;2023-02-28T06:35:51;119.45;;;84.00;;
59273;SDS011;45044;41.572;24.730;2023-02-28T06:38:20;99.13;;;68.70;;
59273;SDS011;45044;41.572;24.730;2023-02-28T06:40:52;121.20;;;76.47;;
59273;SDS011;45044;41.572;24.730;2023-02-28T06:43:21;116.18;;;78.28;;
59273;SDS011;45044;41.572;24.730;2023-02-28T06:45:48;114.68;;;78.57;;
59273;SDS011;45044;41.572;24.730;2023-02-28T06:48:16;117.38;;;82.63;;
59273;SDS011;45044;41.572;24.730;2023-02-28T06:50:44;124.55;;;82.70;;
59273;SDS011;45044;41.572;24.730;2023-02-28T06:53:11;117.80;;;83.57;;
59273;SDS011;45044;41.572;24.730;2023-02-28T06:55:38;123.28;;;88.65;;
59273;SDS011;45044;41.572;24.730;2023-02-28T06:58:05;135.75;;;103.13;;
59273;SDS011;45044;41.572;24.730;2023-02-28T07:00:44;80.93;;;51.35;;
59273;SDS011;45044;41.572;24.730;2023-02-28T07:03:12;82.40;;;54.13;;
59273;SDS011;45044;41.572;24.730;2023-02-28T07:05:39;79.30;;;58.40;;
59273;SDS011;45044;41.572;24.730;2023-02-28T07:08:06;86.00;;;56.75;;
59273;SDS011;45044;41.572;24.730;2023-02-28T07:10:33;80.20;;;55.25;;
59273;SDS011;45044;41.572;24.730;2023-02-28T07:13:00;84.85;;;55.53;;
59273;SDS011;45044;41.572;24.730;2023-02-28T07:15:26;87.00;;;55.50;;
59273;SDS011;45044;41.572;24.730;2023-02-28T07:17:53;79.78;;;51.65;;
59273;SDS011;45044;41.572;24.730;2023-02-28T07:20:20;75.28;;;50.63;;
59273;SDS011;45044;41.572;24.730;2023-02-28T07:22:46;82.80;;;55.45;;
59273;SDS011;45044;41.572;24.730;2023-02-28T07:25:18;114.20;;;74.38;;
59273;SDS011;45044;41.572;24.730;2023-02-28T07:27:44;82.05;;;56.15;;
59273;SDS011;45044;41.572;24.730;2023-02-28T07:30:11;92.05;;;64.65;;
59273;SDS011;45044;41.572;24.730;2023-02-28T07:32:38;84.13;;;58.53;;
59273;SDS011;45044;41.572;24.730;2023-02-28T07:35:05;101.85;;;66.22;;
59273;SDS011;45044;41.572;24.730;2023-02-28T07:37:32;99.55;;;70.78;;
59273;SDS011;45044;41.572;24.730;2023-02-28T07:40:03;116.20;;;77.65;;
59273;SDS011;45044;41.572;24.730;2023-02-28T07:42:36;119.40;;;77.78;;
59273;SDS011;45044;41.572;24.730;2023-02-28T07:45:03;120.93;;;79.90;;
59273;SDS011;45044;41.572;24.730;2023-02-28T07:47:31;120.90;;;82.60;;
59273;SDS011;45044;41.572;24.730;2023-02-28T07:49:58;124.15;;;87.78;;
59273;SDS011;45044;41.572;24.730;2023-02-28T07:52:24;124.60;;;82.22;;
59273;SDS011;45044;41.572;24.730;2023-02-28T07:54:51;119.32;;;77.57;;
59273;SDS011;45044;41.572;24.730;2023-02-28T07:57:18;103.15;;;64.68;;
59273;SDS011;45044;41.572;24.730;2023-02-28T07:59:46;113.25;;;71.25;;
59273;SDS011;45044;41.572;24.730;2023-02-28T08:02:14;103.88;;;66.95;;
59273;SDS011;45044;41.572;24.730;2023-02-28T08:04:42;87.38;;;61.85;;
59273;SDS011;45044;41.572;24.730;2023-02-28T08:07:09;80.35;;;52.22;;
59273;SDS011;45044;41.572;24.730;2023-02-28T08:09:39;72.32;;;42.15;;
59273;SDS011;45044;41.572;24.730;2023-02-28T08:12:06;54.78;;;32.83;;
59273;SDS011;45044;41.572;24.730;2023-02-28T08:14:34;45.05;;;24.90;;
59273;SDS011;45044;41.572;24.730;2023-02-28T08:17:02;37.33;;;22.02;;
59273;SDS011;45044;41.572;24.730;2023-02-28T08:19:30;36.35;;;19.83;;
59273;SDS011;45044;41.572;24.730;2023-02-28T08:21:57;45.47;;;25.98;;
59273;SDS011;45044;41.572;24.730;2023-02-28T08:24:24;45.85;;;26.52;;
59273;SDS011;45044;41.572;24.730;2023-02-28T08:26:51;42.65;;;18.58;;
59273;SDS011;45044;41.572;24.730;2023-02-28T08:29:17;37.75;;;20.50;;
59273;SDS011;45044;41.572;24.730;2023-02-28T08:31:44;40.72;;;20.27;;
59273;SDS011;45044;41.572;24.730;2023-02-28T08:34:12;40.97;;;21.40;;
59273;SDS011;45044;41.572;24.730;2023-02-28T08:36:41;38.60;;;19.73;;
59273;SDS011;45044;41.572;24.730;2023-02-28T08:39:10;38.28;;;19.27;;
59273;SDS011;45044;41.572;24.730;2023-02-28T08:41:41;42.00;;;26.55;;
59273;SDS011;45044;41.572;24.730;2023-02-28T08:44:08;36.42;;;16.98;;
59273;SDS011;45044;41.572;24.730;2023-02-28T08:46:35;31.75;;;16.92;;
59273;SDS011;45044;41.572;24.730;2023-02-28T08:49:02;40.85;;;19.80;;
59273;SDS011;45044;41.572;24.730;2023-02-28T08:51:29;35.25;;;17.23;;
59273;SDS011;45044;41.572;24.730;2023-02-28T08:53:59;21.35;;;11.63;;
59273;SDS011;45044;41.572;24.730;2023-02-28T08:56:27;29.65;;;13.20;;
59273;SDS011;45044;41.572;24.730;2023-02-28T08:58:55;25.85;;;10.88;;
59273;SDS011;45044;41.572;24.730;2023-02-28T09:01:26;27.77;;;11.15;;
59273;SDS011;45044;41.572;24.730;2023-02-28T09:03:55;25.13;;;12.23;;
59273;SDS011;45044;41.572;24.730;2023-02-28T09:06:24;26.60;;;8.88;;
59273;SDS011;45044;41.572;24.730;2023-02-28T09:08:55;18.63;;;8.00;;
59273;SDS011;45044;41.572;24.730;2023-02-28T09:11:24;22.40;;;9.95;;
59273;SDS011;45044;41.572;24.730;2023-02-28T09:13:52;29.50;;;13.15;;
59273;SDS011;45044;41.572;24.730;2023-02-28T09:16:18;20.30;;;8.23;;
59273;SDS011;45044;41.572;24.730;2023-02-28T09:18:45;28.73;;;8.80;;
59273;SDS011;45044;41.572;24.730;2023-02-28T09:21:13;23.50;;;8.90;;
59273;SDS011;45044;41.572;24.730;2023-02-28T09:23:42;23.83;;;9.82;;
59273;SDS011;45044;41.572;24.730;2023-02-28T09:26:28;26.88;;;10.55;;
59273;SDS011;45044;41.572;24.730;2023-02-28T09:29:08;23.48;;;10.95;;
59273;SDS011;45044;41.572;24.730;2023-02-28T09:31:35;23.45;;;10.60;;
59273;SDS011;45044;41.572;24.730;2023-02-28T09:34:01;28.35;;;11.82;;
59273;SDS011;45044;41.572;24.730;2023-02-28T09:36:30;20.40;;;9.70;;
59273;SDS011;45044;41.572;24.730;2023-02-28T09:39:10;21.10;;;9.07;;
59273;SDS011;45044;41.572;24.730;2023-02-28T09:41:39;22.25;;;10.25;;
59273;SDS011;45044;41.572;24.730;2023-02-28T09:46:47;19.77;;;8.13;;
59273;SDS011;45044;41.572;24.730;2023-02-28T09:49:19;22.88;;;10.18;;
59273;SDS011;45044;41.572;24.730;2023-02-28T09:54:28;24.80;;;9.48;;
59273;SDS011;45044;41.572;24.730;2023-02-28T10:04:57;24.48;;;11.45;;
59273;SDS011;45044;41.572;24.730;2023-02-28T10:10:15;23.23;;;10.60;;
59273;SDS011;45044;41.572;24.730;2023-02-28T10:16:02;24.05;;;11.75;;
59273;SDS011;45044;41.572;24.730;2023-02-28T10:18:31;33.40;;;13.98;;
59273;SDS011;45044;41.572;24.730;2023-02-28T10:21:13;26.55;;;12.80;;
59273;SDS011;45044;41.572;24.730;2023-02-28T10:23:49;23.10;;;8.85;;
59273;SDS011;45044;41.572;24.730;2023-02-28T10:26:24;18.55;;;7.63;;
59273;SDS011;45044;41.572;24.730;2023-02-28T10:28:54;25.08;;;9.77;;
59273;SDS011;45044;41.572;24.730;2023-02-28T10:31:21;21.35;;;9.85;;
59273;SDS011;45044;41.572;24.730;2023-02-28T10:33:51;25.58;;;10.75;;
59273;SDS011;45044;41.572;24.730;2023-02-28T10:36:19;20.70;;;8.77;;
59273;SDS011;45044;41.572;24.730;2023-02-28T10:38:47;24.17;;;9.68;;
59273;SDS011;45044;41.572;24.730;2023-02-28T10:41:15;20.88;;;7.88;;
59273;SDS011;45044;41.572;24.730;2023-02-28T10:43:53;23.55;;;10.25;;
59273;SDS011;45044;41.572;24.730;2023-02-28T10:46:48;21.42;;;10.00;;
59273;SDS011;45044;41.572;24.730;2023-02-28T10:49:20;20.15;;;8.30;;
59273;SDS011;45044;41.572;24.730;2023-02-28T10:51:51;22.48;;;11.05;;
59273;SDS011;45044;41.572;24.730;2023-02-28T10:54:22;26.88;;;12.10;;
59273;SDS011;45044;41.572;24.730;2023-02-28T10:57:20;20.45;;;11.25;;
59273;SDS011;45044;41.572;24.730;2023-02-28T10:59:53;18.42;;;7.65;;
59273;SDS011;45044;41.572;24.730;2023-02-28T11:02:39;19.88;;;8.52;;
59273;SDS011;45044;41.572;24.730;2023-02-28T11:08:04;12.38;;;5.93;;
59273;SDS011;45044;41.572;24.730;2023-02-28T11:10:37;21.65;;;9.43;;
59273;SDS011;45044;41.572;24.730;2023-02-28T11:13:05;19.90;;;10.18;;
59273;SDS011;45044;41.572;24.730;2023-02-28T11:15:32;23.48;;;12.70;;
59273;SDS011;45044;41.572;24.730;2023-02-28T11:20:39;22.83;;;10.40;;
59273;SDS011;45044;41.572;24.730;2023-02-28T11:23:10;17.23;;;10.60;;
59273;SDS011;45044;41.572;24.730;2023-02-28T11:25:39;19.38;;;9.63;;
59273;SDS011;45044;41.572;24.730;2023-02-28T11:28:24;19.10;;;9.35;;
59273;SDS011;45044;41.572;24.730;2023-02-28T11:33:42;21.98;;;13.85;;
59273;SDS011;45044;41.572;24.730;2023-02-28T11:38:38;13.60;;;7.55;;
59273;SDS011;45044;41.572;24.730;2023-02-28T11:41:09;14.40;;;10.18;;
59273;SDS011;45044;41.572;24.730;2023-02-28T11:46:49;23.15;;;11.60;;
59273;SDS011;45044;41.572;24.730;2023-02-28T11:52:01;47.70;;;26.65;;
59273;SDS011;45044;41.572;24.730;2023-02-28T12:00:14;35.35;;;19.27;;
59273;SDS011;45044;41.572;24.730;2023-02-28T12:02:58;8.43;;;5.37;;
59273;SDS011;45044;41.572;24.730;2023-02-28T12:05:38;11.77;;;6.68;;
59273;SDS011;45044;41.572;24.730;2023-02-28T12:10:44;37.55;;;20.92;;
59273;SDS011;45044;41.572;24.730;2023-02-28T12:13:46;14.43;;;6.90;;
59273;SDS011;45044;41.572;24.730;2023-02-28T12:27:24;20.58;;;8.73;;
59273;SDS011;45044;41.572;24.730;2023-02-28T12:32:49;12.35;;;6.85;;
59273;SDS011;45044;41.572;24.730;2023-02-28T12:35:23;9.27;;;5.60;;
59273;SDS011;45044;41.572;24.730;2023-02-28T12:38:05;9.95;;;5.10;;
59273;SDS011;45044;41.572;24.730;2023-02-28T12:40:48;8.57;;;4.10;;
59273;SDS011;45044;41.572;24.730;2023-02-28T12:43:20;9.43;;;4.60;;
59273;SDS011;45044;41.572;24.730;2023-02-28T12:45:53;9.68;;;5.05;;
59273;SDS011;45044;41.572;24.730;2023-02-28T12:48:27;10.13;;;6.50;;
59273;SDS011;45044;41.572;24.730;2023-02-28T12:50:58;11.68;;;8.25;;
59273;SDS011;45044;41.572;24.730;2023-02-28T12:59:01;15.23;;;10.85;;
59273;SDS011;45044;41.572;24.730;2023-02-28T13:01:54;13.80;;;9.23;;
59273;SDS011;45044;41.572;24.730;2023-02-28T13:04:43;13.40;;;6.93;;
59273;SDS011;45044;41.572;24.730;2023-02-28T13:10:08;10.80;;;8.60;;
59273;SDS011;45044;41.572;24.730;2023-02-28T13:12:36;12.07;;;7.70;;
59273;SDS011;45044;41.572;24.730;2023-02-28T13:15:18;16.25;;;11.00;;
59273;SDS011;45044;41.572;24.730;2023-02-28T13:17:51;16.55;;;12.77;;
59273;SDS011;45044;41.572;24.730;2023-02-28T13:22:52;12.38;;;9.43;;
59273;SDS011;45044;41.572;24.730;2023-02-28T13:28:00;23.40;;;16.25;;
59273;SDS011;45044;41.572;24.730;2023-02-28T13:35:46;26.10;;;20.25;;
59273;SDS011;45044;41.572;24.730;2023-02-28T13:38:16;25.83;;;19.77;;
59273;SDS011;45044;41.572;24.730;2023-02-28T13:40:49;21.67;;;12.88;;
59273;SDS011;45044;41.572;24.730;2023-02-28T13:43:16;16.70;;;13.27;;
59273;SDS011;45044;41.572;24.730;2023-02-28T13:46:30;23.55;;;17.55;;
59273;SDS011;45044;41.572;24.730;2023-02-28T13:48:49;12.73;;;7.03;;
59273;SDS011;45044;41.572;24.730;2023-02-28T13:51:26;17.35;;;11.98;;
59273;SDS011;45044;41.572;24.730;2023-02-28T14:11:34;34.17;;;24.65;;
59273;SDS011;45044;41.572;24.730;2023-02-28T14:14:03;35.20;;;21.38;;
59273;SDS011;45044;41.572;24.730;2023-02-28T14:16:36;48.97;;;34.25;;
59273;SDS011;45044;41.572;24.730;2023-02-28T14:19:24;35.22;;;20.58;;
59273;SDS011;45044;41.572;24.730;2023-02-28T14:24:41;38.58;;;26.85;;
59273;SDS011;45044;41.572;24.730;2023-02-28T14:27:27;36.17;;;23.58;;
59273;SDS011;45044;41.572;24.730;2023-02-28T14:38:18;21.13;;;15.13;;
59273;SDS011;45044;41.572;24.730;2023-02-28T14:40:54;20.40;;;14.35;;
59273;SDS011;45044;41.572;24.730;2023-02-28T14:43:24;41.55;;;28.58;;
59273;SDS011;45044;41.572;24.730;2023-02-28T14:45:53;43.70;;;31.30;;
59273;SDS011;45044;41.572;24.730;2023-02-28T14:48:22;31.77;;;21.38;;
59273;SDS011;45044;41.572;24.730;2023-02-28T14:50:52;30.30;;;20.27;;
59273;SDS011;45044;41.572;24.730;2023-02-28T14:53:29;28.48;;;20.45;;
59273;SDS011;45044;41.572;24.730;2023-02-28T14:56:01;28.77;;;20.63;;
59273;SDS011;45044;41.572;24.730;2023-02-28T14:58:29;23.33;;;16.75;;
59273;SDS011;45044;41.572;24.730;2023-02-28T15:01:02;17.98;;;13.40;;
59273;SDS011;45044;41.572;24.730;2023-02-28T15:03:31;22.20;;;16.83;;
59273;SDS011;45044;41.572;24.730;2023-02-28T15:06:01;22.75;;;16.85;;
59273;SDS011;45044;41.572;24.730;2023-02-28T15:08:38;21.85;;;14.02;;
59273;SDS011;45044;41.572;24.730;2023-02-28T15:11:06;60.28;;;32.58;;
59273;SDS011;45044;41.572;24.730;2023-02-28T15:13:38;20.20;;;13.63;;
59273;SDS011;45044;41.572;24.730;2023-02-28T15:16:10;32.17;;;21.38;;
59273;SDS011;45044;41.572;24.730;2023-02-28T15:18:48;31.40;;;23.10;;
59273;SDS011;45044;41.572;24.730;2023-02-28T15:21:40;63.08;;;34.63;;
59273;SDS011;45044;41.572;24.730;2023-02-28T15:24:10;32.13;;;18.30;;
59273;SDS011;45044;41.572;24.730;2023-02-28T15:26:39;38.88;;;29.83;;
59273;SDS011;45044;41.572;24.730;2023-02-28T15:29:15;38.95;;;28.23;;
59273;SDS011;45044;41.572;24.730;2023-02-28T15:32:05;25.85;;;17.08;;
59273;SDS011;45044;41.572;24.730;2023-02-28T15:34:38;17.40;;;11.88;;
59273;SDS011;45044;41.572;24.730;2023-02-28T15:42:23;34.00;;;18.80;;
59273;SDS011;45044;41.572;24.730;2023-02-28T15:44:54;20.27;;;12.50;;
59273;SDS011;45044;41.572;24.730;2023-02-28T15:47:22;16.13;;;9.68;;
59273;SDS011;45044;41.572;24.730;2023-02-28T15:49:53;16.10;;;9.35;;
59273;SDS011;45044;41.572;24.730;2023-02-28T15:52:42;7.72;;;4.45;;
59273;SDS011;45044;41.572;24.730;2023-02-28T15:55:18;7.57;;;4.35;;
59273;SDS011;45044;41.572;24.730;2023-02-28T15:57:51;14.88;;;10.30;;
59273;SDS011;45044;41.572;24.730;2023-02-28T16:00:26;10.45;;;7.55;;
59273;SDS011;45044;41.572;24.730;2023-02-28T16:02:54;15.18;;;9.63;;
59273;SDS011;45044;41.572;24.730;2023-02-28T16:05:23;14.27;;;8.38;;
59273;SDS011;45044;41.572;24.730;2023-02-28T16:08:17;14.48;;;8.60;;
59273;SDS011;45044;41.572;24.730;2023-02-28T16:10:44;13.90;;;9.45;;
59273;SDS011;45044;41.572;24.730;2023-02-28T16:13:11;6.75;;;4.80;;
59273;SDS011;45044;41.572;24.730;2023-02-28T16:15:43;11.32;;;8.27;;
59273;SDS011;45044;41.572;24.730;2023-02-28T16:18:11;13.85;;;7.40;;
59273;SDS011;45044;41.572;24.730;2023-02-28T16:20:38;7.30;;;4.38;;
59273;SDS011;45044;41.572;24.730;2023-02-28T16:23:05;13.95;;;7.55;;
59273;SDS011;45044;41.572;24.730;2023-02-28T16:25:37;9.60;;;5.88;;
59273;SDS011;45044;41.572;24.730;2023-02-28T16:28:39;10.13;;;6.32;;
59273;SDS011;45044;41.572;24.730;2023-02-28T16:31:00;9.65;;;5.47;;
59273;SDS011;45044;41.572;24.730;2023-02-28T16:33:32;12.98;;;7.72;;
59273;SDS011;45044;41.572;24.730;2023-02-28T16:36:01;14.63;;;8.10;;
59273;SDS011;45044;41.572;24.730;2023-02-28T16:38:28;21.02;;;13.63;;
59273;SDS011;45044;41.572;24.730;2023-02-28T16:40:56;17.83;;;10.88;;
59273;SDS011;45044;41.572;24.730;2023-02-28T16:43:26;19.65;;;13.52;;
59273;SDS011;45044;41.572;24.730;2023-02-28T16:45:56;25.60;;;16.05;;
59273;SDS011;45044;41.572;24.730;2023-02-28T16:48:27;15.95;;;10.18;;
59273;SDS011;45044;41.572;24.730;2023-02-28T16:50:54;21.63;;;14.63;;
59273;SDS011;45044;41.572;24.730;2023-02-28T16:53:21;37.03;;;26.27;;
59273;SDS011;45044;41.572;24.730;2023-02-28T16:55:48;26.02;;;20.42;;
59273;SDS011;45044;41.572;24.730;2023-02-28T16:58:17;8.40;;;5.82;;
59273;SDS011;45044;41.572;24.730;2023-02-28T17:00:45;14.27;;;10.75;;
59273;SDS011;45044;41.572;24.730;2023-02-28T17:03:23;12.80;;;7.97;;
59273;SDS011;45044;41.572;24.730;2023-02-28T17:05:59;23.67;;;11.70;;
59273;SDS011;45044;41.572;24.730;2023-02-28T17:08:26;31.52;;;17.88;;
59273;SDS011;45044;41.572;24.730;2023-02-28T17:10:55;27.98;;;17.27;;